Hovedside
METAR-TAF:

METAR-TAF

Lufthavner :

Sandefjord, Norge

Sandefjord lufthavn

breddegrad: 59-12N, lengdegrad: 010-16E, høyde over havet: 8 m

Gjeldene værobservasjon

Denne rapporten ble laget for 31 minutter siden, klokken 20:20 UTC
Vind 3 kt fra Nord
Temperatur 10°C
Luftfuktighet 87%
Trykk 1022 hPa
Sikt 10 km eller mer
ingen skyer under 1500 m og ingen bygeskyer

METAR: ENTO 262020Z 35003KT CAVOK 10/08 Q1022

Tid: 22:51 (20:51 UTC)

Varsel

Varsel gyldig fra 26. klokken 18 UTC til 27. klokken 18 UTC
Vind 6 kt fra Vest-nordvest
Sikt 10 km eller mer
ingen skyer under 1500 m og ingen bygeskyer
Sannsynlighet 30%
fra 27. klokken 02 UTC til 27. klokken 08 UTC
Sikt: 0500 m
i en høyde av 100 ft
tåke

TAF: ENTO 2618/2718 30006KT CAVOK PROB30 2702/2708 0500 FG VV001

Værobservasjoner og værvarsel for over 4000 flyplasser (METAR- og TAF-rapporter).

Tilgjengelige stasjoner er representert av de røde og gule prikkene på kartet.

Hold musepekeren over prikken for å se navnet på stasjonen.

Klikk så for å se værobservasjoner og -varsler.

For å forandre kartet kan du klikke på den grønne knappen med svart kryss for å zoome inn, på den grønne knappen med strek for å zoome ut, eller på de grønne pilene for å se tilstøtende kart.


METAR-TAF: